createdAt,value
2023-02-03T00:01:50.888Z,9.07
2023-02-03T00:04:17.648Z,10.10
2023-02-03T00:06:44.841Z,11.40
2023-02-03T00:09:11.612Z,12.40
2023-02-03T00:11:38.402Z,9.73
2023-02-03T00:14:07.846Z,12.47
2023-02-03T00:16:35.455Z,12.07
2023-02-03T00:19:02.441Z,7.27
2023-02-03T00:21:29.519Z,12.70
2023-02-03T00:23:56.612Z,12.67
2023-02-03T00:26:25.906Z,8.83
2023-02-03T00:28:53.016Z,11.10
2023-02-03T00:31:21.682Z,10.77
2023-02-03T00:33:49.051Z,8.33
2023-02-03T00:36:16.146Z,9.80
2023-02-03T00:38:42.809Z,7.87
2023-02-03T00:41:09.869Z,11.63
2023-02-03T00:43:36.508Z,9.17
2023-02-03T00:46:03.340Z,10.53
2023-02-03T00:48:30.577Z,11.70
2023-02-03T00:50:57.693Z,10.50
2023-02-03T00:53:24.786Z,11.57
2023-02-03T00:55:52.093Z,12.50
2023-02-03T00:58:19.390Z,11.40
2023-02-03T01:00:46.548Z,9.27
2023-02-03T01:03:13.397Z,9.23
2023-02-03T01:05:40.493Z,10.60
2023-02-03T01:08:07.535Z,10.20
2023-02-03T01:10:34.184Z,10.67
2023-02-03T01:13:01.294Z,9.17
2023-02-03T01:15:28.035Z,8.27
2023-02-03T01:17:55.088Z,9.00
2023-02-03T01:20:22.242Z,10.97
2023-02-03T01:22:49.380Z,10.30
2023-02-03T01:25:16.473Z,9.43
2023-02-03T01:27:43.547Z,8.20
2023-02-03T01:30:11.218Z,8.67
2023-02-03T01:32:38.382Z,6.97
2023-02-03T01:35:05.650Z,8.53
2023-02-03T01:37:32.713Z,8.63
2023-02-03T01:39:59.797Z,7.87
2023-02-03T01:42:26.870Z,7.43
2023-02-03T01:44:55.119Z,9.47
2023-02-03T01:47:24.702Z,10.27
2023-02-03T01:50:00.930Z,9.23
2023-02-03T01:52:29.088Z,10.30
2023-02-03T01:54:57.465Z,8.97
2023-02-03T01:57:27.416Z,9.30
2023-02-03T01:59:55.208Z,7.80
2023-02-03T02:02:22.648Z,8.47
2023-02-03T02:05:18.880Z,9.30
2023-02-03T02:07:46.431Z,10.97
2023-02-03T02:10:13.353Z,8.50
2023-02-03T02:12:40.495Z,6.83
2023-02-03T02:15:07.800Z,11.07
2023-02-03T02:17:41.079Z,7.30
2023-02-03T02:20:20.938Z,9.47
2023-02-03T02:23:14.921Z,10.90
2023-02-03T02:26:07.484Z,6.93
2023-02-03T02:28:53.180Z,7.27
2023-02-03T02:31:39.193Z,7.93
2023-02-03T02:34:12.673Z,7.00
2023-02-03T02:37:02.866Z,10.63
2023-02-03T02:39:39.408Z,9.90
2023-02-03T02:42:15.635Z,6.47
2023-02-03T02:44:49.894Z,8.13
2023-02-03T02:47:21.061Z,7.57
2023-02-03T02:50:04.893Z,9.47
2023-02-03T02:52:34.831Z,11.67
2023-02-03T02:55:04.357Z,8.30
2023-02-03T02:57:32.172Z,9.57
2023-02-03T02:59:59.065Z,7.77
2023-02-03T03:02:35.738Z,5.13
2023-02-03T03:05:06.771Z,6.97
2023-02-03T03:07:36.795Z,9.40
2023-02-03T03:10:06.450Z,6.33
2023-02-03T03:12:36.933Z,9.67
2023-02-03T03:15:15.092Z,5.23
2023-02-03T03:18:03.720Z,7.07
2023-02-03T03:20:32.872Z,8.90
2023-02-03T03:23:05.920Z,9.33
2023-02-03T03:25:37.255Z,6.20
2023-02-03T03:28:08.800Z,7.53
2023-02-03T03:30:37.541Z,6.57
2023-02-03T03:33:05.879Z,7.73
2023-02-03T03:35:42.685Z,7.60
2023-02-03T03:38:17.921Z,8.23
2023-02-03T03:40:53.175Z,6.50
2023-02-03T03:43:21.887Z,8.60
2023-02-03T03:45:55.828Z,5.77
2023-02-03T03:48:36.421Z,12.20
2023-02-03T03:51:15.899Z,9.57
2023-02-03T03:53:44.412Z,8.23
2023-02-03T03:56:17.568Z,7.53
2023-02-03T03:58:47.014Z,7.13
2023-02-03T04:01:15.067Z,6.60
2023-02-03T04:03:47.350Z,9.40
2023-02-03T04:06:14.366Z,7.30
2023-02-03T04:08:41.492Z,9.23
2023-02-03T04:11:08.626Z,6.33
2023-02-03T04:13:35.765Z,7.67
2023-02-03T04:16:02.524Z,6.77
2023-02-03T04:18:29.685Z,7.10
2023-02-03T04:20:56.827Z,6.90
2023-02-03T04:23:23.948Z,4.37
2023-02-03T04:25:51.036Z,6.73
2023-02-03T04:28:18.164Z,7.97
2023-02-03T04:30:45.255Z,6.47
2023-02-03T04:33:12.312Z,7.80
2023-02-03T04:35:39.391Z,9.17
2023-02-03T04:38:06.470Z,6.83
2023-02-03T04:40:35.099Z,7.50
2023-02-03T04:43:06.662Z,8.23
2023-02-03T04:45:33.369Z,9.03
2023-02-03T04:48:00.478Z,7.30
2023-02-03T04:50:27.912Z,7.57
2023-02-03T04:52:54.717Z,5.97
2023-02-03T04:55:21.861Z,10.63
2023-02-03T04:57:48.524Z,9.40
2023-02-03T05:00:15.799Z,5.77
2023-02-03T05:02:42.856Z,10.13
2023-02-03T05:05:09.947Z,6.87
2023-02-03T05:07:37.011Z,8.00
2023-02-03T05:10:04.348Z,7.90
2023-02-03T05:12:31.535Z,6.43
2023-02-03T05:14:58.582Z,6.27
2023-02-03T05:17:25.301Z,12.63
2023-02-03T05:19:52.407Z,11.13
2023-02-03T05:22:19.501Z,11.43
2023-02-03T05:24:46.624Z,8.40
2023-02-03T05:27:13.269Z,10.37
2023-02-03T05:29:40.344Z,7.40
2023-02-03T05:32:07.440Z,9.43
2023-02-03T05:34:34.143Z,6.47
2023-02-03T05:37:01.564Z,8.50
2023-02-03T05:39:28.666Z,9.87
2023-02-03T05:41:58.332Z,8.83
2023-02-03T05:44:26.915Z,9.83
2023-02-03T05:46:54.868Z,7.83
2023-02-03T05:49:23.188Z,10.30
2023-02-03T05:51:51.432Z,9.07
2023-02-03T05:54:18.112Z,7.20
2023-02-03T05:56:44.823Z,5.77
2023-02-03T05:59:11.982Z,5.90
2023-02-03T06:01:39.194Z,5.57
2023-02-03T06:04:06.972Z,6.67
2023-02-03T06:06:34.539Z,7.83
2023-02-03T06:09:10.523Z,5.40
2023-02-03T06:11:37.667Z,7.70
2023-02-03T06:14:05.311Z,11.13
2023-02-03T06:16:32.090Z,10.53
2023-02-03T06:19:00.712Z,4.83
2023-02-03T06:21:27.775Z,4.83
2023-02-03T06:23:55.921Z,8.23
2023-02-03T06:26:23.083Z,8.67
2023-02-03T06:28:49.733Z,5.27
2023-02-03T06:31:16.960Z,8.97
2023-02-03T06:33:44.149Z,6.73
2023-02-03T06:36:11.489Z,7.97
2023-02-03T06:38:38.152Z,8.50
2023-02-03T06:41:05.184Z,11.23
2023-02-03T06:43:32.256Z,6.30
2023-02-03T06:45:59.400Z,9.90
2023-02-03T06:48:26.576Z,7.27
2023-02-03T06:50:53.604Z,7.03
2023-02-03T06:53:20.645Z,5.30
2023-02-03T06:55:48.069Z,6.07
2023-02-03T06:58:15.300Z,6.23
2023-02-03T07:00:42.421Z,9.73
2023-02-03T07:03:09.151Z,6.17
2023-02-03T07:05:36.816Z,6.30
2023-02-03T07:08:03.581Z,7.47
2023-02-03T07:10:30.482Z,8.60
2023-02-03T07:13:05.889Z,10.50
2023-02-03T07:15:32.694Z,5.33
2023-02-03T07:17:59.817Z,8.57
2023-02-03T07:20:28.965Z,6.90
2023-02-03T07:22:57.705Z,6.03
2023-02-03T07:25:25.408Z,5.10
2023-02-03T07:27:52.631Z,7.70
2023-02-03T07:30:19.876Z,6.73
2023-02-03T07:32:48.685Z,4.93
2023-02-03T07:35:15.661Z,6.90
2023-02-03T07:37:43.195Z,8.67
2023-02-03T07:40:11.982Z,7.83
2023-02-03T07:42:45.934Z,12.63
2023-02-03T07:45:14.105Z,10.00
2023-02-03T07:47:41.623Z,6.17
2023-02-03T07:50:09.070Z,5.63
2023-02-03T07:52:36.278Z,5.23
2023-02-03T07:55:03.411Z,6.23
2023-02-03T07:57:30.472Z,3.80
2023-02-03T07:59:57.546Z,4.70
2023-02-03T08:02:24.597Z,8.83
2023-02-03T08:04:51.757Z,6.13
2023-02-03T08:07:18.478Z,5.97
2023-02-03T08:09:45.565Z,6.70
2023-02-03T08:12:12.292Z,6.90
2023-02-03T08:14:39.018Z,6.47
2023-02-03T08:17:06.152Z,6.23
2023-02-03T08:19:33.943Z,6.00
2023-02-03T08:22:00.996Z,5.90
2023-02-03T08:24:28.065Z,6.30
2023-02-03T08:26:54.887Z,4.13
2023-02-03T08:29:21.755Z,8.10
2023-02-03T08:31:48.964Z,7.73
2023-02-03T08:34:15.739Z,10.50
2023-02-03T08:36:43.864Z,6.13
2023-02-03T08:39:10.998Z,7.27
2023-02-03T08:41:38.154Z,3.50
2023-02-03T08:44:04.886Z,3.07
2023-02-03T08:46:31.658Z,8.37
2023-02-03T08:48:58.352Z,9.87
2023-02-03T08:51:25.492Z,7.20
2023-02-03T08:53:52.403Z,4.63
2023-02-03T08:56:19.301Z,5.27
2023-02-03T08:58:46.386Z,4.30
2023-02-03T09:01:15.538Z,4.20
2023-02-03T09:03:43.035Z,3.37
2023-02-03T09:06:13.035Z,6.63
2023-02-03T09:08:40.191Z,3.17
2023-02-03T09:11:11.079Z,6.23
2023-02-03T09:13:38.899Z,7.83
2023-02-03T09:16:07.731Z,4.50
2023-02-03T09:18:34.858Z,5.30
2023-02-03T09:21:02.782Z,4.53
2023-02-03T09:23:29.695Z,5.03
2023-02-03T09:26:01.316Z,7.87
2023-02-03T09:28:28.057Z,6.07
2023-02-03T09:30:55.198Z,6.50
2023-02-03T09:33:21.887Z,6.27
2023-02-03T09:35:55.470Z,3.73
2023-02-03T09:38:22.781Z,6.90
2023-02-03T09:40:55.455Z,4.77
2023-02-03T09:43:51.468Z,4.50
2023-02-03T09:46:43.757Z,3.23
2023-02-03T09:49:38.367Z,6.90
2023-02-03T09:52:15.940Z,5.67
2023-02-03T09:54:52.564Z,5.13
2023-02-03T09:57:25.300Z,5.77
2023-02-03T09:59:54.576Z,4.27
2023-02-03T10:02:35.265Z,5.20
2023-02-03T10:05:13.146Z,8.30
2023-02-03T10:07:58.833Z,4.80
2023-02-03T10:10:42.020Z,4.20
2023-02-03T10:13:31.421Z,6.73
2023-02-03T10:16:10.756Z,6.97
2023-02-03T10:18:44.903Z,7.17
2023-02-03T10:21:21.374Z,9.93
2023-02-03T10:23:49.126Z,5.17
2023-02-03T10:26:26.166Z,6.30
2023-02-03T10:29:06.422Z,10.43
2023-02-03T10:31:36.490Z,6.07
2023-02-03T10:34:12.454Z,5.53
2023-02-03T10:37:03.472Z,6.37
2023-02-03T10:39:43.118Z,6.87
2023-02-03T10:42:12.462Z,5.53
2023-02-03T10:44:42.938Z,5.87
2023-02-03T10:47:25.816Z,6.23
2023-02-03T10:49:55.165Z,5.10
2023-02-03T10:52:34.042Z,5.90
2023-02-03T10:55:27.975Z,5.87
2023-02-03T10:57:55.171Z,16.17
2023-02-03T11:00:30.658Z,4.57
2023-02-03T11:03:07.903Z,5.33
2023-02-03T11:05:35.490Z,6.73
2023-02-03T11:08:02.310Z,8.10
2023-02-03T11:10:32.274Z,7.33
2023-02-03T11:13:21.205Z,6.33
2023-02-03T11:15:48.261Z,6.40
2023-02-03T11:18:36.422Z,10.90
2023-02-03T11:21:16.204Z,5.50
2023-02-03T11:23:51.950Z,4.90
2023-02-03T11:26:25.493Z,4.50
2023-02-03T11:28:56.011Z,6.10
2023-02-03T11:31:28.993Z,5.50
2023-02-03T11:33:59.941Z,6.97
2023-02-03T11:36:28.013Z,6.07
2023-02-03T11:39:10.940Z,5.73
2023-02-03T11:41:39.760Z,7.67
2023-02-03T11:44:26.372Z,9.90
2023-02-03T11:47:03.519Z,7.87
2023-02-03T11:49:30.611Z,8.03
2023-02-03T11:52:10.906Z,6.60
2023-02-03T11:54:37.994Z,8.97
2023-02-03T11:57:07.805Z,8.00
2023-02-03T12:00:13.196Z,8.10
2023-02-03T12:03:07.042Z,9.43
2023-02-03T12:05:34.193Z,8.73
2023-02-03T12:08:21.116Z,8.20
2023-02-03T12:10:48.295Z,9.00
2023-02-03T12:13:49.059Z,10.13
2023-02-03T12:16:18.823Z,9.30
2023-02-03T12:19:29.762Z,13.10
2023-02-03T12:22:45.056Z,10.97
2023-02-03T12:25:32.013Z,8.47
2023-02-03T12:28:32.895Z,10.53
2023-02-03T12:31:12.380Z,10.27
2023-02-03T12:33:44.790Z,11.40
2023-02-03T12:36:28.397Z,10.87
2023-02-03T12:39:06.317Z,9.07
2023-02-03T12:41:38.230Z,8.97
2023-02-03T12:44:15.276Z,10.03
2023-02-03T12:47:23.390Z,12.90
2023-02-03T12:50:31.319Z,8.67
2023-02-03T12:53:06.436Z,11.03
2023-02-03T12:55:33.118Z,14.27
2023-02-03T12:58:07.460Z,9.07
2023-02-03T13:00:57.305Z,9.80
2023-02-03T13:03:35.968Z,11.33
2023-02-03T13:06:03.043Z,9.27
2023-02-03T13:08:35.415Z,17.97
2023-02-03T13:11:28.867Z,13.30
2023-02-03T13:14:01.732Z,13.33
2023-02-03T13:16:37.743Z,11.50
2023-02-03T13:19:11.372Z,12.07
2023-02-03T13:21:38.188Z,12.03
2023-02-03T13:24:05.461Z,14.17
2023-02-03T13:27:22.683Z,14.43
2023-02-03T13:30:33.835Z,15.23
2023-02-03T13:33:28.283Z,17.27
2023-02-03T13:36:15.214Z,12.47
2023-02-03T13:38:57.190Z,14.03
2023-02-03T13:41:48.294Z,11.07
2023-02-03T13:44:19.594Z,12.87
2023-02-03T13:46:50.496Z,12.73
2023-02-03T13:49:30.648Z,14.77
2023-02-03T13:51:57.725Z,14.47
2023-02-03T13:54:33.217Z,13.57
2023-02-03T13:57:06.668Z,13.83
2023-02-03T13:59:41.459Z,12.03
2023-02-03T14:02:20.239Z,14.10
2023-02-03T14:04:46.922Z,18.33
2023-02-03T14:07:33.423Z,16.23
2023-02-03T14:10:12.399Z,14.27
2023-02-03T14:12:56.250Z,13.90
2023-02-03T14:15:26.128Z,13.47
2023-02-03T14:17:54.180Z,11.60
2023-02-03T14:20:29.754Z,13.43
2023-02-03T14:23:05.274Z,12.13
2023-02-03T14:25:45.538Z,8.47
2023-02-03T14:28:20.036Z,12.60
2023-02-03T14:31:03.391Z,11.80
2023-02-03T14:33:48.528Z,10.17
2023-02-03T14:36:35.658Z,10.03
2023-02-03T14:39:22.725Z,12.77
2023-02-03T14:42:08.679Z,8.43
2023-02-03T14:45:03.177Z,11.53
2023-02-03T14:47:32.637Z,8.03
2023-02-03T14:50:08.112Z,9.93
2023-02-03T14:53:00.640Z,8.93
2023-02-03T14:55:34.811Z,9.67
2023-02-03T14:58:06.952Z,9.33
2023-02-03T15:00:35.729Z,10.63
2023-02-03T15:03:11.248Z,7.50
2023-02-03T15:05:38.304Z,10.07
2023-02-03T15:08:05.369Z,6.77
2023-02-03T15:10:43.536Z,14.67
2023-02-03T15:13:27.086Z,7.70
2023-02-03T15:15:57.429Z,11.63
2023-02-03T15:18:37.486Z,6.70
2023-02-03T15:21:04.898Z,8.03
2023-02-03T15:23:47.784Z,11.33
2023-02-03T15:26:18.603Z,10.23
2023-02-03T15:29:16.551Z,9.47
2023-02-03T15:31:48.911Z,10.60
2023-02-03T15:34:29.752Z,10.93
2023-02-03T15:37:02.125Z,10.83
2023-02-03T15:39:40.853Z,9.03
2023-02-03T15:42:15.968Z,9.23
2023-02-03T15:44:53.342Z,10.60
2023-02-03T15:47:41.477Z,16.40
2023-02-03T15:50:30.726Z,11.53
2023-02-03T15:53:04.818Z,13.07
2023-02-03T15:55:50.522Z,12.33
2023-02-03T15:58:29.670Z,13.47
2023-02-03T16:01:03.811Z,11.20
2023-02-03T16:03:30.861Z,11.97
2023-02-03T16:05:57.740Z,15.00
2023-02-03T16:08:28.527Z,9.07
2023-02-03T16:10:55.384Z,13.60
2023-02-03T16:13:27.422Z,11.43
2023-02-03T16:16:10.308Z,11.37
2023-02-03T16:18:37.712Z,10.20
2023-02-03T16:21:05.632Z,11.93
2023-02-03T16:23:32.906Z,13.27
2023-02-03T16:26:07.317Z,14.90
2023-02-03T16:28:53.310Z,16.80
2023-02-03T16:31:39.854Z,13.17
2023-02-03T16:34:37.235Z,16.47
2023-02-03T16:37:44.389Z,14.43
2023-02-03T16:40:31.160Z,15.10
2023-02-03T16:43:16.775Z,16.33
2023-02-03T16:46:02.811Z,18.07
2023-02-03T16:48:48.504Z,16.43
2023-02-03T16:51:17.013Z,11.73
2023-02-03T16:53:45.572Z,12.20
2023-02-03T16:56:13.665Z,13.10
2023-02-03T16:58:40.967Z,11.87
2023-02-03T17:01:09.637Z,9.90
2023-02-03T17:03:37.439Z,14.77
2023-02-03T17:06:10.494Z,10.93
2023-02-03T17:08:38.893Z,13.13
2023-02-03T17:11:08.276Z,15.60
2023-02-03T17:13:36.751Z,14.40
2023-02-03T17:16:14.118Z,14.70
2023-02-03T17:18:41.260Z,12.03
2023-02-03T17:21:10.684Z,13.00
2023-02-03T17:23:37.907Z,17.20
2023-02-03T17:26:05.270Z,14.63
2023-02-03T17:28:32.225Z,15.27
2023-02-03T17:31:01.103Z,22.63
2023-02-03T17:33:29.270Z,14.83
2023-02-03T17:36:04.190Z,17.80
2023-02-03T17:38:31.422Z,16.47
2023-02-03T17:54:41.091Z,16.07
2023-02-03T17:57:07.832Z,14.47
2023-02-03T17:59:37.606Z,16.53
2023-02-03T18:02:04.544Z,20.33
2023-02-03T18:04:31.630Z,13.70
2023-02-03T18:06:58.312Z,27.17
2023-02-03T18:09:25.109Z,20.77
2023-02-03T18:11:51.807Z,17.10
2023-02-03T18:14:19.150Z,17.63
2023-02-03T18:16:46.360Z,17.73
2023-02-03T18:19:14.970Z,17.67
2023-02-03T18:21:43.123Z,19.03
2023-02-03T18:24:12.673Z,16.97
2023-02-03T18:26:49.601Z,20.00
2023-02-03T18:29:16.724Z,16.90
2023-02-03T18:31:44.181Z,17.23
2023-02-03T18:34:11.536Z,19.20
2023-02-03T18:39:12.404Z,19.57
2023-02-03T18:41:40.008Z,15.93
2023-02-03T18:44:06.910Z,20.17
2023-02-03T18:46:34.211Z,15.93
2023-02-03T18:49:01.484Z,20.63
2023-02-03T18:51:28.654Z,24.10
2023-02-03T18:53:59.653Z,17.40
2023-02-03T18:56:27.708Z,15.33
2023-02-03T18:58:55.052Z,16.70
2023-02-03T19:01:26.128Z,14.67
2023-02-03T19:03:54.505Z,16.37
2023-02-03T19:06:21.372Z,17.43
2023-02-03T19:08:49.156Z,16.87
2023-02-03T19:11:15.956Z,15.77
2023-02-03T19:13:43.453Z,22.13
2023-02-03T19:16:13.322Z,17.67
2023-02-03T19:18:40.635Z,18.93
2023-02-03T19:21:07.811Z,14.73
2023-02-03T19:23:34.538Z,16.33
2023-02-03T19:26:02.714Z,17.47
2023-02-03T19:28:31.143Z,17.23
2023-02-03T19:31:07.990Z,21.90
2023-02-03T19:33:36.088Z,15.73
2023-02-03T19:36:03.538Z,17.90
2023-02-03T19:38:30.819Z,18.80
2023-02-03T19:40:57.488Z,14.23
2023-02-03T19:43:24.719Z,21.40
2023-02-03T19:45:52.228Z,16.07
2023-02-03T19:48:19.576Z,12.20
2023-02-03T19:50:49.486Z,17.03
2023-02-03T19:53:17.310Z,20.80
2023-02-03T19:55:44.753Z,17.70
2023-02-03T19:58:12.534Z,13.90
2023-02-03T20:00:39.910Z,14.53
2023-02-03T20:03:07.011Z,19.13
2023-02-03T20:05:34.441Z,14.63
2023-02-03T20:08:01.611Z,18.77
2023-02-03T20:10:29.297Z,18.87
2023-02-03T20:12:56.119Z,23.23
2023-02-03T20:15:23.411Z,20.57
2023-02-03T20:17:50.310Z,19.23
2023-02-03T20:20:19.214Z,15.10
2023-02-03T20:22:47.734Z,17.93
2023-02-03T20:25:14.678Z,11.73
2023-02-03T20:27:42.046Z,16.23
2023-02-03T20:30:09.663Z,21.80
2023-02-03T20:32:36.806Z,20.13
2023-02-03T20:35:04.850Z,19.47
2023-02-03T20:37:32.252Z,16.63
2023-02-03T20:39:59.267Z,20.57
2023-02-03T20:42:26.453Z,21.87
2023-02-03T20:44:53.583Z,16.73
2023-02-03T20:47:22.187Z,20.30
2023-02-03T20:49:49.654Z,21.00
2023-02-03T20:52:18.269Z,17.33
2023-02-03T20:54:45.222Z,23.60
2023-02-03T20:57:13.812Z,18.50
2023-02-03T20:59:41.046Z,14.30
2023-02-03T21:02:17.736Z,20.57
2023-02-03T21:04:57.639Z,16.70
2023-02-03T21:07:30.013Z,17.17
2023-02-03T21:09:58.490Z,17.00
2023-02-03T21:12:25.637Z,15.30
2023-02-03T21:14:55.007Z,15.93
2023-02-03T21:17:26.433Z,17.97
2023-02-03T21:19:54.401Z,17.77
2023-02-03T21:22:23.752Z,15.83
2023-02-03T21:24:53.446Z,16.43
2023-02-03T21:27:25.207Z,14.50
2023-02-03T21:29:55.798Z,12.97
2023-02-03T21:32:23.380Z,13.30
2023-02-03T21:34:50.504Z,16.27
2023-02-03T21:37:23.354Z,19.60
2023-02-03T21:39:51.039Z,11.53
2023-02-03T21:42:18.103Z,18.33
2023-02-03T21:44:44.874Z,12.63
2023-02-03T21:47:18.122Z,18.70
2023-02-03T21:49:45.026Z,16.10
2023-02-03T21:52:13.737Z,20.27
2023-02-03T21:54:43.486Z,15.03
2023-02-03T21:57:17.579Z,17.90
2023-02-03T21:59:49.186Z,18.43
2023-02-03T22:02:29.360Z,15.37
2023-02-03T22:04:57.604Z,22.83
2023-02-03T22:07:24.780Z,29.30
2023-02-03T22:09:51.583Z,20.70
2023-02-03T22:12:18.672Z,23.13
2023-02-03T22:14:45.331Z,21.37
2023-02-03T22:17:14.266Z,18.90
2023-02-03T22:19:41.449Z,16.50
2023-02-03T22:22:08.099Z,21.53
2023-02-03T22:24:35.204Z,19.43
2023-02-03T22:27:01.868Z,16.13
2023-02-03T22:29:28.953Z,22.37
2023-02-03T22:31:56.150Z,15.57
2023-02-03T22:34:23.437Z,15.97
2023-02-03T22:36:50.544Z,16.87
2023-02-03T22:39:17.227Z,19.43
2023-02-03T22:41:44.323Z,18.23
2023-02-03T22:44:15.981Z,29.20
2023-02-03T22:46:43.151Z,16.10
2023-02-03T22:49:10.456Z,21.60
2023-02-03T22:51:37.351Z,16.90
2023-02-03T22:54:04.500Z,17.23
2023-02-03T22:56:31.193Z,15.13
2023-02-03T22:58:57.909Z,17.73
2023-02-03T23:01:25.092Z,19.27
2023-02-03T23:03:52.361Z,17.00
2023-02-03T23:06:19.515Z,24.73
2023-02-03T23:08:46.654Z,17.17
2023-02-03T23:11:13.854Z,14.83
2023-02-03T23:13:41.105Z,18.47
2023-02-03T23:16:08.440Z,23.27
2023-02-03T23:18:35.528Z,16.20
2023-02-03T23:21:02.646Z,20.07
2023-02-03T23:23:29.707Z,15.30
2023-02-03T23:25:56.757Z,15.73
2023-02-03T23:28:24.011Z,19.50
2023-02-03T23:30:50.838Z,17.97
2023-02-03T23:33:17.729Z,18.60
2023-02-03T23:35:49.309Z,21.50
2023-02-03T23:38:17.160Z,13.70
2023-02-03T23:40:44.736Z,21.27
2023-02-03T23:43:11.392Z,18.70
2023-02-03T23:45:38.503Z,20.90
2023-02-03T23:48:06.086Z,17.57
2023-02-03T23:50:33.355Z,19.13
2023-02-03T23:53:00.588Z,19.90
2023-02-03T23:55:27.691Z,19.27
2023-02-03T23:57:54.772Z,18.20
